Portada
METAR-TAF:

METAR-TAF

Aeroports :

Farnborough, Anglaterra

latitud: 51-17N, longitud: 000-46W, altitud: 65 m

Observació

L'informe es va fer fa 28 minuts, a les 18:20 UTC
Vent 9 kt del Nord-Est, variant entre Nord i Est
Temperatura 4°C
Humitat 56%
Pressió 1033 hPa
Visibilitat 10 km o més

METAR: EGLF 051820Z AUTO 04009KT 010V090 9999 BKN043/// 04/M04 Q1033

Hora: 18:48 (18:48 UTC)

Pronòstic

L'informe es va fer fa 1 hora i 44 minuts, a les 17:04 UTC
Pronòstic vàlid del 05 a les 18 UTC al 05 a les 23 UTC
Vent 10 kt del Nord-Est
Visibilitat 10 km o més
Núvols disperses a una alçada de 4000 ft

TAF: EGLF 051704Z 0518/0523 05010KT 9999 SCT040

Observacions i pronòstics meteorològics de més de 4000 aeroports (METAR i TAF).

Les estacions disponibles són els punts grocs i vermells al mapa.

Posi el ratolí al punt desitjat per veure el nom de l'estació.

Feu clic per veure les observacions i els pronòstics meteorològics.

Per canviar el mapa: feu clic els botons verds amb una creu de color negre per apropar; al botó verd amb un guió per allunyar la imatge; o en les fletxes verdes per a mapes adjacents.


METAR-TAF: